sensor_id;sensor_type;location;lat;lon;timestamp;pressure;altitude;pressure_sealevel;temperature;humidity
5966;BME280;3009;43.224;27.976;2023-06-10T00:00:45;99812.78;;;16.74;76.06
5966;BME280;3009;43.224;27.976;2023-06-10T00:03:13;99816.97;;;16.72;77.80
5966;BME280;3009;43.224;27.976;2023-06-10T00:05:42;99816.13;;;16.68;77.17
5966;BME280;3009;43.224;27.976;2023-06-10T00:08:12;99816.84;;;16.64;75.92
5966;BME280;3009;43.224;27.976;2023-06-10T00:10:42;99818.06;;;16.67;77.33
5966;BME280;3009;43.224;27.976;2023-06-10T00:13:11;99822.69;;;16.66;75.19
5966;BME280;3009;43.224;27.976;2023-06-10T00:15:39;99826.53;;;16.65;76.62
5966;BME280;3009;43.224;27.976;2023-06-10T00:18:08;99838.56;;;16.68;76.78
5966;BME280;3009;43.224;27.976;2023-06-10T00:20:37;99828.56;;;16.72;77.08
5966;BME280;3009;43.224;27.976;2023-06-10T00:23:05;99832.31;;;16.64;79.45
5966;BME280;3009;43.224;27.976;2023-06-10T00:25:36;99828.16;;;16.70;74.50
5966;BME280;3009;43.224;27.976;2023-06-10T00:28:05;99829.28;;;16.92;69.07
5966;BME280;3009;43.224;27.976;2023-06-10T00:30:33;99828.75;;;17.06;70.53
5966;BME280;3009;43.224;27.976;2023-06-10T00:33:01;99822.00;;;16.96;72.70
5966;BME280;3009;43.224;27.976;2023-06-10T00:35:30;99819.13;;;16.86;75.24
5966;BME280;3009;43.224;27.976;2023-06-10T00:37:58;99825.06;;;16.95;71.03
5966;BME280;3009;43.224;27.976;2023-06-10T00:40:27;99828.50;;;16.92;70.56
5966;BME280;3009;43.224;27.976;2023-06-10T00:42:57;99825.66;;;16.84;73.03
5966;BME280;3009;43.224;27.976;2023-06-10T00:45:25;99829.47;;;16.80;74.78
5966;BME280;3009;43.224;27.976;2023-06-10T00:47:53;99828.31;;;16.81;74.92
5966;BME280;3009;43.224;27.976;2023-06-10T00:50:22;99826.97;;;16.44;78.43
5966;BME280;3009;43.224;27.976;2023-06-10T00:52:50;99828.47;;;16.42;79.03
5966;BME280;3009;43.224;27.976;2023-06-10T00:55:21;99825.72;;;16.38;79.91
5966;BME280;3009;43.224;27.976;2023-06-10T00:57:50;99836.16;;;16.63;71.02
5966;BME280;3009;43.224;27.976;2023-06-10T01:00:20;99829.56;;;17.10;65.71
5966;BME280;3009;43.224;27.976;2023-06-10T01:02:49;99832.13;;;17.30;63.66
5966;BME280;3009;43.224;27.976;2023-06-10T01:05:19;99836.94;;;17.40;62.63
5966;BME280;3009;43.224;27.976;2023-06-10T01:07:52;99837.94;;;17.28;64.15
5966;BME280;3009;43.224;27.976;2023-06-10T01:10:28;99834.59;;;16.85;71.01
5966;BME280;3009;43.224;27.976;2023-06-10T01:12:59;99837.13;;;16.74;73.18
5966;BME280;3009;43.224;27.976;2023-06-10T01:15:31;99834.22;;;16.63;77.66
5966;BME280;3009;43.224;27.976;2023-06-10T01:18:01;99830.81;;;16.43;79.79
5966;BME280;3009;43.224;27.976;2023-06-10T01:20:31;99828.66;;;16.29;81.27
5966;BME280;3009;43.224;27.976;2023-06-10T01:23:02;99825.75;;;16.19;79.98
5966;BME280;3009;43.224;27.976;2023-06-10T01:25:31;99827.75;;;16.22;78.40
5966;BME280;3009;43.224;27.976;2023-06-10T01:28:10;99823.88;;;16.23;76.44
5966;BME280;3009;43.224;27.976;2023-06-10T01:30:44;99820.53;;;16.29;75.59
5966;BME280;3009;43.224;27.976;2023-06-10T01:33:25;99817.59;;;16.38;75.59
5966;BME280;3009;43.224;27.976;2023-06-10T01:35:56;99818.72;;;16.60;75.43
5966;BME280;3009;43.224;27.976;2023-06-10T01:38:27;99817.53;;;16.84;74.24
5966;BME280;3009;43.224;27.976;2023-06-10T01:40:57;99813.94;;;17.00;74.25
5966;BME280;3009;43.224;27.976;2023-06-10T01:43:26;99815.56;;;17.05;74.04
5966;BME280;3009;43.224;27.976;2023-06-10T01:45:54;99814.28;;;17.25;70.33
5966;BME280;3009;43.224;27.976;2023-06-10T01:48:23;99812.38;;;17.26;71.34
5966;BME280;3009;43.224;27.976;2023-06-10T01:50:51;99812.50;;;17.06;76.23
5966;BME280;3009;43.224;27.976;2023-06-10T01:53:19;99807.22;;;16.90;78.17
5966;BME280;3009;43.224;27.976;2023-06-10T01:55:50;99809.25;;;16.74;78.13
5966;BME280;3009;43.224;27.976;2023-06-10T01:58:18;99805.66;;;16.66;76.30
5966;BME280;3009;43.224;27.976;2023-06-10T02:00:47;99810.97;;;16.59;76.64
5966;BME280;3009;43.224;27.976;2023-06-10T02:03:15;99805.13;;;16.57;79.63
5966;BME280;3009;43.224;27.976;2023-06-10T02:05:45;99813.94;;;16.50;80.37
5966;BME280;3009;43.224;27.976;2023-06-10T02:08:13;99804.34;;;16.33;84.34
5966;BME280;3009;43.224;27.976;2023-06-10T02:10:42;99809.72;;;16.29;84.52
5966;BME280;3009;43.224;27.976;2023-06-10T02:13:12;99805.78;;;16.27;83.34
5966;BME280;3009;43.224;27.976;2023-06-10T02:15:40;99812.69;;;16.24;83.13
5966;BME280;3009;43.224;27.976;2023-06-10T02:18:09;99811.50;;;16.22;82.94
5966;BME280;3009;43.224;27.976;2023-06-10T02:20:38;99813.13;;;16.26;81.94
5966;BME280;3009;43.224;27.976;2023-06-10T02:23:07;99810.78;;;16.25;82.86
5966;BME280;3009;43.224;27.976;2023-06-10T02:25:35;99813.78;;;16.20;83.91
5966;BME280;3009;43.224;27.976;2023-06-10T02:28:04;99815.31;;;16.17;84.87
5966;BME280;3009;43.224;27.976;2023-06-10T02:30:34;99811.16;;;16.23;84.86
5966;BME280;3009;43.224;27.976;2023-06-10T02:33:02;99811.22;;;16.27;83.94
5966;BME280;3009;43.224;27.976;2023-06-10T02:35:32;99813.19;;;16.30;83.62
5966;BME280;3009;43.224;27.976;2023-06-10T02:38:01;99813.00;;;16.42;79.23
5966;BME280;3009;43.224;27.976;2023-06-10T02:40:29;99814.63;;;16.47;81.88
5966;BME280;3009;43.224;27.976;2023-06-10T02:42:58;99818.41;;;16.42;84.24
5966;BME280;3009;43.224;27.976;2023-06-10T02:45:26;99817.81;;;16.29;86.56
5966;BME280;3009;43.224;27.976;2023-06-10T02:47:56;99811.22;;;16.27;83.67
5966;BME280;3009;43.224;27.976;2023-06-10T02:50:25;99806.94;;;16.26;86.50
5966;BME280;3009;43.224;27.976;2023-06-10T02:52:53;99812.91;;;16.35;85.07
5966;BME280;3009;43.224;27.976;2023-06-10T02:55:21;99820.59;;;16.33;87.71
5966;BME280;3009;43.224;27.976;2023-06-10T02:57:53;99813.38;;;16.41;87.25
5966;BME280;3009;43.224;27.976;2023-06-10T03:00:22;99816.91;;;16.45;86.69
5966;BME280;3009;43.224;27.976;2023-06-10T03:02:50;99817.53;;;16.58;85.77
5966;BME280;3009;43.224;27.976;2023-06-10T03:05:20;99827.00;;;16.71;84.59
5966;BME280;3009;43.224;27.976;2023-06-10T03:07:49;99829.47;;;17.03;82.29
5966;BME280;3009;43.224;27.976;2023-06-10T03:10:18;99828.63;;;17.56;82.11
5966;BME280;3009;43.224;27.976;2023-06-10T03:12:47;99825.97;;;18.80;76.13
5966;BME280;3009;43.224;27.976;2023-06-10T03:15:15;99823.38;;;19.71;69.11
5966;BME280;3009;43.224;27.976;2023-06-10T03:17:43;99825.09;;;20.51;65.12
5966;BME280;3009;43.224;27.976;2023-06-10T03:20:12;99823.00;;;21.46;56.91
5966;BME280;3009;43.224;27.976;2023-06-10T03:22:43;99819.47;;;22.26;52.98
5966;BME280;3009;43.224;27.976;2023-06-10T03:25:12;99819.75;;;22.88;48.82
5966;BME280;3009;43.224;27.976;2023-06-10T03:27:43;99814.28;;;23.61;47.76
5966;BME280;3009;43.224;27.976;2023-06-10T03:30:12;99810.00;;;24.18;47.26
5966;BME280;3009;43.224;27.976;2023-06-10T03:32:41;99812.84;;;25.25;45.63
5966;BME280;3009;43.224;27.976;2023-06-10T03:35:10;99803.75;;;25.32;44.83
5966;BME280;3009;43.224;27.976;2023-06-10T03:37:38;99807.41;;;25.45;43.65
5966;BME280;3009;43.224;27.976;2023-06-10T03:40:09;99803.31;;;26.73;42.22
5966;BME280;3009;43.224;27.976;2023-06-10T03:42:38;99809.22;;;26.87;42.08
5966;BME280;3009;43.224;27.976;2023-06-10T03:45:07;99809.25;;;26.22;43.24
5966;BME280;3009;43.224;27.976;2023-06-10T03:47:37;99811.28;;;25.64;45.10
5966;BME280;3009;43.224;27.976;2023-06-10T03:50:08;99802.00;;;25.18;47.07
5966;BME280;3009;43.224;27.976;2023-06-10T03:52:38;99814.88;;;26.97;43.50
5966;BME280;3009;43.224;27.976;2023-06-10T03:55:08;99805.38;;;26.52;44.48
5966;BME280;3009;43.224;27.976;2023-06-10T03:57:38;99801.28;;;26.27;45.12
5966;BME280;3009;43.224;27.976;2023-06-10T04:00:08;99799.44;;;26.70;43.50
5966;BME280;3009;43.224;27.976;2023-06-10T04:02:39;99798.63;;;27.57;41.70
5966;BME280;3009;43.224;27.976;2023-06-10T04:05:14;99805.88;;;29.65;35.65
5966;BME280;3009;43.224;27.976;2023-06-10T04:07:43;99804.69;;;29.75;35.57
5966;BME280;3009;43.224;27.976;2023-06-10T04:10:13;99801.25;;;28.38;36.50
5966;BME280;3009;43.224;27.976;2023-06-10T04:12:44;99805.41;;;29.66;34.79
5966;BME280;3009;43.224;27.976;2023-06-10T04:15:13;99797.34;;;29.19;35.24
5966;BME280;3009;43.224;27.976;2023-06-10T04:17:41;99795.31;;;30.13;34.58
5966;BME280;3009;43.224;27.976;2023-06-10T04:20:10;99803.13;;;29.33;37.03
5966;BME280;3009;43.224;27.976;2023-06-10T04:22:38;99799.53;;;30.36;35.33
5966;BME280;3009;43.224;27.976;2023-06-10T04:25:09;99800.31;;;32.06;30.84
5966;BME280;3009;43.224;27.976;2023-06-10T04:27:39;99800.94;;;30.69;32.94
5966;BME280;3009;43.224;27.976;2023-06-10T04:30:08;99800.69;;;32.71;29.08
5966;BME280;3009;43.224;27.976;2023-06-10T04:32:37;99803.94;;;32.45;27.97
5966;BME280;3009;43.224;27.976;2023-06-10T04:35:06;99794.69;;;33.02;28.01
5966;BME280;3009;43.224;27.976;2023-06-10T04:37:35;99804.53;;;32.74;27.99
5966;BME280;3009;43.224;27.976;2023-06-10T04:40:04;99803.03;;;32.63;28.61
5966;BME280;3009;43.224;27.976;2023-06-10T04:42:33;99804.88;;;33.20;28.33
5966;BME280;3009;43.224;27.976;2023-06-10T04:45:04;99806.03;;;33.29;28.49
5966;BME280;3009;43.224;27.976;2023-06-10T04:47:33;99801.09;;;34.39;26.85
5966;BME280;3009;43.224;27.976;2023-06-10T04:50:03;99807.50;;;34.46;27.06
5966;BME280;3009;43.224;27.976;2023-06-10T04:52:32;99802.84;;;33.51;28.70
5966;BME280;3009;43.224;27.976;2023-06-10T04:55:01;99803.09;;;33.83;28.95
5966;BME280;3009;43.224;27.976;2023-06-10T04:57:30;99801.38;;;34.06;28.39
5966;BME280;3009;43.224;27.976;2023-06-10T04:59:58;99803.66;;;35.10;27.03
5966;BME280;3009;43.224;27.976;2023-06-10T05:02:28;99809.66;;;35.03;26.51
5966;BME280;3009;43.224;27.976;2023-06-10T05:04:57;99809.97;;;34.23;28.48
5966;BME280;3009;43.224;27.976;2023-06-10T05:07:25;99808.66;;;34.80;27.72
5966;BME280;3009;43.224;27.976;2023-06-10T05:09:53;99807.91;;;36.07;26.08
5966;BME280;3009;43.224;27.976;2023-06-10T05:12:22;99803.22;;;34.71;27.25
5966;BME280;3009;43.224;27.976;2023-06-10T05:14:50;99808.00;;;34.91;26.70
5966;BME280;3009;43.224;27.976;2023-06-10T05:17:19;99811.03;;;33.25;28.93
5966;BME280;3009;43.224;27.976;2023-06-10T05:19:49;99802.41;;;35.43;26.83
5966;BME280;3009;43.224;27.976;2023-06-10T05:22:17;99809.91;;;36.01;26.38
5966;BME280;3009;43.224;27.976;2023-06-10T05:24:46;99804.69;;;36.86;24.72
5966;BME280;3009;43.224;27.976;2023-06-10T05:27:14;99805.72;;;37.22;24.50
5966;BME280;3009;43.224;27.976;2023-06-10T05:29:43;99808.00;;;37.01;24.41
5966;BME280;3009;43.224;27.976;2023-06-10T05:32:12;99804.84;;;34.77;27.43
5966;BME280;3009;43.224;27.976;2023-06-10T05:34:40;99802.09;;;36.71;25.50
5966;BME280;3009;43.224;27.976;2023-06-10T05:37:10;99806.25;;;37.32;24.27
5966;BME280;3009;43.224;27.976;2023-06-10T05:39:39;99802.44;;;35.17;26.56
5966;BME280;3009;43.224;27.976;2023-06-10T05:42:08;99795.09;;;34.93;27.16
5966;BME280;3009;43.224;27.976;2023-06-10T05:44:37;99800.47;;;36.36;25.22
5966;BME280;3009;43.224;27.976;2023-06-10T05:47:06;99798.38;;;37.31;23.54
5966;BME280;3009;43.224;27.976;2023-06-10T05:49:34;99791.50;;;37.20;23.09
5966;BME280;3009;43.224;27.976;2023-06-10T05:52:03;99784.78;;;38.08;22.09
5966;BME280;3009;43.224;27.976;2023-06-10T05:54:33;99788.50;;;38.34;22.18
5966;BME280;3009;43.224;27.976;2023-06-10T05:57:02;99787.53;;;38.25;22.11
5966;BME280;3009;43.224;27.976;2023-06-10T05:59:31;99793.38;;;38.27;22.35
5966;BME280;3009;43.224;27.976;2023-06-10T06:02:00;99791.47;;;37.03;23.47
5966;BME280;3009;43.224;27.976;2023-06-10T06:04:28;99791.03;;;33.56;27.47
5966;BME280;3009;43.224;27.976;2023-06-10T06:06:56;99780.91;;;34.44;27.54
5966;BME280;3009;43.224;27.976;2023-06-10T06:09:26;99790.91;;;34.16;28.29
5966;BME280;3009;43.224;27.976;2023-06-10T06:11:56;99787.16;;;35.33;26.96
5966;BME280;3009;43.224;27.976;2023-06-10T06:14:24;99788.72;;;36.26;25.79
5966;BME280;3009;43.224;27.976;2023-06-10T06:16:53;99794.03;;;36.90;24.74
5966;BME280;3009;43.224;27.976;2023-06-10T06:19:21;99783.63;;;37.24;24.51
5966;BME280;3009;43.224;27.976;2023-06-10T06:21:49;99777.25;;;36.79;24.71
5966;BME280;3009;43.224;27.976;2023-06-10T06:24:18;99773.53;;;35.78;26.45
5966;BME280;3009;43.224;27.976;2023-06-10T06:26:46;99772.44;;;35.70;25.90
5966;BME280;3009;43.224;27.976;2023-06-10T06:29:17;99768.88;;;36.07;25.63
5966;BME280;3009;43.224;27.976;2023-06-10T06:31:46;99762.28;;;36.87;23.76
5966;BME280;3009;43.224;27.976;2023-06-10T06:34:14;99771.16;;;37.59;23.33
5966;BME280;3009;43.224;27.976;2023-06-10T06:36:43;99773.19;;;37.53;22.52
5966;BME280;3009;43.224;27.976;2023-06-10T06:39:11;99771.94;;;37.15;22.36
5966;BME280;3009;43.224;27.976;2023-06-10T06:41:40;99771.91;;;37.49;21.71
5966;BME280;3009;43.224;27.976;2023-06-10T06:44:09;99774.72;;;37.03;21.59
5966;BME280;3009;43.224;27.976;2023-06-10T06:46:39;99771.22;;;34.19;25.02
5966;BME280;3009;43.224;27.976;2023-06-10T06:49:07;99764.53;;;33.40;26.84
5966;BME280;3009;43.224;27.976;2023-06-10T06:51:35;99775.16;;;32.82;27.86
5966;BME280;3009;43.224;27.976;2023-06-10T06:54:04;99774.94;;;32.31;29.02
5966;BME280;3009;43.224;27.976;2023-06-10T06:56:32;99771.78;;;31.90;29.10
5966;BME280;3009;43.224;27.976;2023-06-10T06:59:01;99767.91;;;30.56;31.48
5966;BME280;3009;43.224;27.976;2023-06-10T07:01:29;99762.34;;;31.21;30.61
5966;BME280;3009;43.224;27.976;2023-06-10T07:03:59;99755.81;;;33.02;28.06
5966;BME280;3009;43.224;27.976;2023-06-10T07:06:28;99755.28;;;33.79;26.28
5966;BME280;3009;43.224;27.976;2023-06-10T07:08:56;99752.94;;;34.54;27.42
5966;BME280;3009;43.224;27.976;2023-06-10T07:11:24;99752.19;;;34.79;27.22
5966;BME280;3009;43.224;27.976;2023-06-10T07:13:53;99750.09;;;35.27;28.18
5966;BME280;3009;43.224;27.976;2023-06-10T07:16:21;99748.69;;;35.43;28.22
5966;BME280;3009;43.224;27.976;2023-06-10T07:18:50;99750.94;;;35.39;28.54
5966;BME280;3009;43.224;27.976;2023-06-10T07:21:20;99749.16;;;36.28;28.43
5966;BME280;3009;43.224;27.976;2023-06-10T07:23:49;99745.13;;;36.29;28.35
5966;BME280;3009;43.224;27.976;2023-06-10T07:26:21;99744.00;;;36.09;28.66
5966;BME280;3009;43.224;27.976;2023-06-10T07:28:50;99743.97;;;35.55;29.27
5966;BME280;3009;43.224;27.976;2023-06-10T07:31:18;99745.47;;;33.18;32.76
5966;BME280;3009;43.224;27.976;2023-06-10T07:33:47;99747.91;;;33.25;33.35
5966;BME280;3009;43.224;27.976;2023-06-10T07:36:15;99744.88;;;33.44;33.93
5966;BME280;3009;43.224;27.976;2023-06-10T07:38:45;99740.06;;;33.59;33.80
5966;BME280;3009;43.224;27.976;2023-06-10T07:41:14;99746.66;;;31.60;35.14
5966;BME280;3009;43.224;27.976;2023-06-10T07:43:45;99748.50;;;31.12;36.42
5966;BME280;3009;43.224;27.976;2023-06-10T07:46:13;99755.94;;;30.59;38.26
5966;BME280;3009;43.224;27.976;2023-06-10T07:48:42;99748.50;;;31.02;39.46
5966;BME280;3009;43.224;27.976;2023-06-10T07:51:12;99751.44;;;30.34;39.21
5966;BME280;3009;43.224;27.976;2023-06-10T07:53:42;99753.63;;;29.48;42.70
5966;BME280;3009;43.224;27.976;2023-06-10T07:56:12;99753.09;;;29.09;46.44
5966;BME280;3009;43.224;27.976;2023-06-10T07:58:41;99753.22;;;30.00;45.89
5966;BME280;3009;43.224;27.976;2023-06-10T08:01:09;99753.59;;;31.04;44.15
5966;BME280;3009;43.224;27.976;2023-06-10T08:03:37;99756.66;;;31.06;43.68
5966;BME280;3009;43.224;27.976;2023-06-10T08:06:06;99755.03;;;31.42;42.40
5966;BME280;3009;43.224;27.976;2023-06-10T08:08:34;99753.94;;;31.82;41.77
5966;BME280;3009;43.224;27.976;2023-06-10T08:11:08;99742.44;;;31.98;40.64
5966;BME280;3009;43.224;27.976;2023-06-10T08:13:38;99744.97;;;31.11;42.00
5966;BME280;3009;43.224;27.976;2023-06-10T08:16:06;99748.13;;;29.89;44.24
5966;BME280;3009;43.224;27.976;2023-06-10T08:18:35;99744.53;;;29.39;46.69
5966;BME280;3009;43.224;27.976;2023-06-10T08:21:04;99732.75;;;28.94;46.42
5966;BME280;3009;43.224;27.976;2023-06-10T08:23:32;99729.63;;;28.83;48.06
5966;BME280;3009;43.224;27.976;2023-06-10T08:26:01;99742.06;;;28.30;45.87
5966;BME280;3009;43.224;27.976;2023-06-10T08:28:29;99738.69;;;27.74;49.36
5966;BME280;3009;43.224;27.976;2023-06-10T08:30:59;99736.75;;;27.75;49.14
5966;BME280;3009;43.224;27.976;2023-06-10T08:33:27;99744.44;;;27.54;49.37
5966;BME280;3009;43.224;27.976;2023-06-10T08:35:56;99738.66;;;27.10;51.31
5966;BME280;3009;43.224;27.976;2023-06-10T08:38:24;99744.22;;;27.36;52.55
5966;BME280;3009;43.224;27.976;2023-06-10T08:40:56;99744.16;;;26.81;54.32
5966;BME280;3009;43.224;27.976;2023-06-10T08:43:32;99741.47;;;27.49;52.53
5966;BME280;3009;43.224;27.976;2023-06-10T08:46:03;99742.25;;;27.62;54.51
5966;BME280;3009;43.224;27.976;2023-06-10T08:48:35;99745.41;;;28.25;49.85
5966;BME280;3009;43.224;27.976;2023-06-10T08:51:09;99739.66;;;28.19;49.08
5966;BME280;3009;43.224;27.976;2023-06-10T08:53:41;99738.16;;;27.80;48.21
5966;BME280;3009;43.224;27.976;2023-06-10T08:56:13;99734.63;;;27.40;48.94
5966;BME280;3009;43.224;27.976;2023-06-10T08:58:42;99724.66;;;27.17;54.88
5966;BME280;3009;43.224;27.976;2023-06-10T09:01:13;99725.78;;;27.20;57.34
5966;BME280;3009;43.224;27.976;2023-06-10T09:03:43;99720.44;;;27.42;55.54
5966;BME280;3009;43.224;27.976;2023-06-10T09:06:13;99725.16;;;27.54;56.05
5966;BME280;3009;43.224;27.976;2023-06-10T09:08:42;99730.56;;;27.45;55.45
5966;BME280;3009;43.224;27.976;2023-06-10T09:11:10;99730.44;;;27.87;51.64
5966;BME280;3009;43.224;27.976;2023-06-10T09:13:39;99730.22;;;27.69;51.08
5966;BME280;3009;43.224;27.976;2023-06-10T09:16:07;99720.59;;;27.22;49.65
5966;BME280;3009;43.224;27.976;2023-06-10T09:18:40;99720.22;;;27.36;53.29
5966;BME280;3009;43.224;27.976;2023-06-10T09:21:08;99726.47;;;27.75;53.37
5966;BME280;3009;43.224;27.976;2023-06-10T09:23:37;99714.03;;;27.71;49.81
5966;BME280;3009;43.224;27.976;2023-06-10T09:26:08;99718.22;;;27.37;49.51
5966;BME280;3009;43.224;27.976;2023-06-10T09:28:38;99710.06;;;27.59;51.13
5966;BME280;3009;43.224;27.976;2023-06-10T09:31:07;99712.22;;;27.13;54.81
5966;BME280;3009;43.224;27.976;2023-06-10T09:33:37;99714.31;;;27.09;56.75
5966;BME280;3009;43.224;27.976;2023-06-10T09:36:07;99714.94;;;27.42;57.37
5966;BME280;3009;43.224;27.976;2023-06-10T09:38:36;99708.00;;;27.37;51.85
5966;BME280;3009;43.224;27.976;2023-06-10T09:41:04;99706.94;;;27.05;47.93
5966;BME280;3009;43.224;27.976;2023-06-10T09:43:40;99711.72;;;26.59;47.23
5966;BME280;3009;43.224;27.976;2023-06-10T09:46:16;99705.66;;;26.51;52.96
5966;BME280;3009;43.224;27.976;2023-06-10T09:48:46;99709.94;;;26.52;55.40
5966;BME280;3009;43.224;27.976;2023-06-10T09:51:17;99721.28;;;26.84;53.51
5966;BME280;3009;43.224;27.976;2023-06-10T09:53:48;99704.63;;;27.17;48.28
5966;BME280;3009;43.224;27.976;2023-06-10T09:56:17;99703.44;;;27.31;45.50
5966;BME280;3009;43.224;27.976;2023-06-10T09:58:46;99693.97;;;27.70;47.52
5966;BME280;3009;43.224;27.976;2023-06-10T10:01:15;99701.81;;;27.33;51.74
5966;BME280;3009;43.224;27.976;2023-06-10T10:03:44;99692.97;;;27.26;53.46
5966;BME280;3009;43.224;27.976;2023-06-10T10:06:15;99698.25;;;27.20;53.56
5966;BME280;3009;43.224;27.976;2023-06-10T10:08:46;99693.47;;;27.50;52.28
5966;BME280;3009;43.224;27.976;2023-06-10T10:11:17;99694.78;;;27.45;53.85
5966;BME280;3009;43.224;27.976;2023-06-10T10:13:48;99695.03;;;26.96;56.77
5966;BME280;3009;43.224;27.976;2023-06-10T10:16:17;99695.09;;;26.50;56.97
5966;BME280;3009;43.224;27.976;2023-06-10T10:18:52;99691.28;;;26.90;55.29
5966;BME280;3009;43.224;27.976;2023-06-10T10:21:23;99689.56;;;26.66;53.78
5966;BME280;3009;43.224;27.976;2023-06-10T10:24:01;99675.66;;;26.86;55.78
5966;BME280;3009;43.224;27.976;2023-06-10T10:26:31;99673.94;;;27.31;55.97
5966;BME280;3009;43.224;27.976;2023-06-10T10:29:07;99682.41;;;27.24;56.01
5966;BME280;3009;43.224;27.976;2023-06-10T10:31:39;99692.97;;;27.13;53.94
5966;BME280;3009;43.224;27.976;2023-06-10T10:34:12;99674.53;;;27.39;54.14
5966;BME280;3009;43.224;27.976;2023-06-10T10:36:42;99689.03;;;27.78;55.57
5966;BME280;3009;43.224;27.976;2023-06-10T10:39:12;99674.69;;;27.70;54.73
5966;BME280;3009;43.224;27.976;2023-06-10T10:41:41;99670.47;;;28.04;54.93
5966;BME280;3009;43.224;27.976;2023-06-10T10:44:11;99669.84;;;27.87;55.64
5966;BME280;3009;43.224;27.976;2023-06-10T10:46:43;99670.63;;;27.75;56.35
5966;BME280;3009;43.224;27.976;2023-06-10T10:49:14;99666.34;;;27.61;56.91
5966;BME280;3009;43.224;27.976;2023-06-10T10:51:58;99671.38;;;27.11;60.48
5966;BME280;3009;43.224;27.976;2023-06-10T10:54:31;99671.50;;;27.20;59.47
5966;BME280;3009;43.224;27.976;2023-06-10T10:57:17;99667.53;;;27.21;60.47
5966;BME280;3009;43.224;27.976;2023-06-10T10:59:51;99668.06;;;27.03;59.13
5966;BME280;3009;43.224;27.976;2023-06-10T11:02:36;99667.09;;;27.10;61.33
5966;BME280;3009;43.224;27.976;2023-06-10T11:05:08;99665.41;;;26.87;65.01
5966;BME280;3009;43.224;27.976;2023-06-10T11:07:38;99678.63;;;27.05;65.50
5966;BME280;3009;43.224;27.976;2023-06-10T11:10:09;99677.97;;;26.88;66.97
5966;BME280;3009;43.224;27.976;2023-06-10T11:12:52;99671.47;;;25.74;70.15
5966;BME280;3009;43.224;27.976;2023-06-10T11:15:22;99668.72;;;26.07;70.13
5966;BME280;3009;43.224;27.976;2023-06-10T11:18:12;99664.94;;;26.46;68.76
5966;BME280;3009;43.224;27.976;2023-06-10T11:20:54;99645.63;;;26.92;68.32
5966;BME280;3009;43.224;27.976;2023-06-10T11:23:40;99641.97;;;26.69;69.00
5966;BME280;3009;43.224;27.976;2023-06-10T11:26:21;99646.28;;;26.83;71.92
5966;BME280;3009;43.224;27.976;2023-06-10T11:29:07;99651.34;;;26.26;73.55
5966;BME280;3009;43.224;27.976;2023-06-10T11:31:46;99647.09;;;26.09;73.18
5966;BME280;3009;43.224;27.976;2023-06-10T11:34:25;99644.72;;;26.24;74.17
5966;BME280;3009;43.224;27.976;2023-06-10T11:36:54;99637.31;;;26.08;73.96
5966;BME280;3009;43.224;27.976;2023-06-10T11:39:24;99637.06;;;26.31;73.82
5966;BME280;3009;43.224;27.976;2023-06-10T11:41:55;99632.28;;;26.19;73.33
5966;BME280;3009;43.224;27.976;2023-06-10T11:44:27;99629.44;;;25.44;75.46
5966;BME280;3009;43.224;27.976;2023-06-10T11:46:57;99621.19;;;25.77;72.88
5966;BME280;3009;43.224;27.976;2023-06-10T11:49:25;99620.41;;;25.93;73.88
5966;BME280;3009;43.224;27.976;2023-06-10T11:51:54;99624.78;;;26.07;75.23
5966;BME280;3009;43.224;27.976;2023-06-10T11:54:23;99617.22;;;26.40;74.16
5966;BME280;3009;43.224;27.976;2023-06-10T11:56:59;99613.50;;;26.89;72.10
5966;BME280;3009;43.224;27.976;2023-06-10T11:59:30;99617.56;;;26.97;70.74
5966;BME280;3009;43.224;27.976;2023-06-10T12:01:58;99621.88;;;26.98;73.04
5966;BME280;3009;43.224;27.976;2023-06-10T12:04:27;99615.81;;;27.16;70.90
5966;BME280;3009;43.224;27.976;2023-06-10T12:06:55;99610.34;;;26.61;71.93
5966;BME280;3009;43.224;27.976;2023-06-10T12:09:25;99601.00;;;26.59;75.29
5966;BME280;3009;43.224;27.976;2023-06-10T12:11:57;99597.44;;;27.13;69.44
5966;BME280;3009;43.224;27.976;2023-06-10T12:14:53;99600.31;;;26.97;73.16
5966;BME280;3009;43.224;27.976;2023-06-10T12:17:34;99596.25;;;26.17;71.86
5966;BME280;3009;43.224;27.976;2023-06-10T12:20:06;99595.50;;;26.59;73.58
5966;BME280;3009;43.224;27.976;2023-06-10T12:22:39;99602.50;;;26.47;69.40
5966;BME280;3009;43.224;27.976;2023-06-10T12:25:08;99594.03;;;26.54;67.06
5966;BME280;3009;43.224;27.976;2023-06-10T12:27:39;99590.34;;;26.74;67.54
5966;BME280;3009;43.224;27.976;2023-06-10T12:30:18;99596.25;;;26.59;68.39
5966;BME280;3009;43.224;27.976;2023-06-10T12:32:48;99581.38;;;27.12;65.16
5966;BME280;3009;43.224;27.976;2023-06-10T12:35:17;99581.59;;;27.04;61.83
5966;BME280;3009;43.224;27.976;2023-06-10T12:37:55;99579.25;;;27.29;65.88
5966;BME280;3009;43.224;27.976;2023-06-10T12:40:27;99567.19;;;26.87;70.47
5966;BME280;3009;43.224;27.976;2023-06-10T12:42:56;99581.94;;;26.94;69.36
5966;BME280;3009;43.224;27.976;2023-06-10T12:45:30;99565.97;;;27.01;64.58
5966;BME280;3009;43.224;27.976;2023-06-10T12:48:06;99569.25;;;26.70;70.33
5966;BME280;3009;43.224;27.976;2023-06-10T12:50:37;99571.00;;;27.16;63.95
5966;BME280;3009;43.224;27.976;2023-06-10T12:53:06;99563.41;;;27.46;59.80
5966;BME280;3009;43.224;27.976;2023-06-10T12:55:34;99551.13;;;27.72;58.98
5966;BME280;3009;43.224;27.976;2023-06-10T12:58:03;99564.50;;;27.96;57.30
5966;BME280;3009;43.224;27.976;2023-06-10T13:00:33;99561.28;;;28.20;57.17
5966;BME280;3009;43.224;27.976;2023-06-10T13:03:03;99565.38;;;28.37;56.05
5966;BME280;3009;43.224;27.976;2023-06-10T13:05:33;99570.09;;;28.59;57.32
5966;BME280;3009;43.224;27.976;2023-06-10T13:08:04;99555.53;;;28.27;58.28
5966;BME280;3009;43.224;27.976;2023-06-10T13:10:33;99558.06;;;28.21;55.16
5966;BME280;3009;43.224;27.976;2023-06-10T13:13:02;99569.81;;;28.13;59.19
5966;BME280;3009;43.224;27.976;2023-06-10T13:15:34;99575.13;;;28.29;61.68
5966;BME280;3009;43.224;27.976;2023-06-10T13:18:09;99573.09;;;28.20;64.94
5966;BME280;3009;43.224;27.976;2023-06-10T13:20:38;99563.63;;;27.51;66.82
5966;BME280;3009;43.224;27.976;2023-06-10T13:23:07;99581.69;;;27.01;69.59
5966;BME280;3009;43.224;27.976;2023-06-10T13:25:35;99577.19;;;26.94;67.33